sensor_id;sensor_type;location;lat;lon;timestamp;pressure;altitude;pressure_sealevel;temperature;humidity
19748;BME280;10032;51.386;12.516;2023-08-31T00:02:04;99294.25;;;16.48;100.00
19748;BME280;10032;51.386;12.516;2023-08-31T00:04:30;99283.16;;;16.44;100.00
19748;BME280;10032;51.386;12.516;2023-08-31T00:06:55;99273.50;;;16.47;100.00
19748;BME280;10032;51.386;12.516;2023-08-31T00:09:23;99272.31;;;16.39;100.00
19748;BME280;10032;51.386;12.516;2023-08-31T00:11:49;99262.44;;;16.38;100.00
19748;BME280;10032;51.386;12.516;2023-08-31T00:14:15;99257.31;;;16.37;100.00
19748;BME280;10032;51.386;12.516;2023-08-31T00:16:40;99256.50;;;16.36;100.00
19748;BME280;10032;51.386;12.516;2023-08-31T00:19:06;99238.97;;;16.37;100.00
19748;BME280;10032;51.386;12.516;2023-08-31T00:21:31;99215.97;;;16.38;100.00
19748;BME280;10032;51.386;12.516;2023-08-31T00:23:58;99249.91;;;16.37;100.00
19748;BME280;10032;51.386;12.516;2023-08-31T00:26:24;99275.94;;;16.35;100.00
19748;BME280;10032;51.386;12.516;2023-08-31T00:28:50;99263.50;;;16.29;100.00
19748;BME280;10032;51.386;12.516;2023-08-31T00:31:15;99255.09;;;16.25;100.00
19748;BME280;10032;51.386;12.516;2023-08-31T00:33:40;99264.13;;;16.26;100.00
19748;BME280;10032;51.386;12.516;2023-08-31T00:36:06;99269.38;;;16.22;100.00
19748;BME280;10032;51.386;12.516;2023-08-31T00:38:31;99288.97;;;16.16;100.00
19748;BME280;10032;51.386;12.516;2023-08-31T00:40:57;99270.91;;;16.15;100.00
19748;BME280;10032;51.386;12.516;2023-08-31T00:43:22;99262.22;;;16.13;100.00
19748;BME280;10032;51.386;12.516;2023-08-31T00:45:49;99275.88;;;16.13;100.00
19748;BME280;10032;51.386;12.516;2023-08-31T00:48:16;99284.09;;;16.13;100.00
19748;BME280;10032;51.386;12.516;2023-08-31T00:50:43;99286.34;;;16.11;100.00
19748;BME280;10032;51.386;12.516;2023-08-31T00:53:09;99287.75;;;16.08;100.00
19748;BME280;10032;51.386;12.516;2023-08-31T00:55:34;99285.03;;;16.08;100.00
19748;BME280;10032;51.386;12.516;2023-08-31T00:58:00;99294.63;;;16.06;100.00
19748;BME280;10032;51.386;12.516;2023-08-31T01:00:39;99289.09;;;15.97;100.00
19748;BME280;10032;51.386;12.516;2023-08-31T01:03:13;99287.56;;;15.91;100.00
19748;BME280;10032;51.386;12.516;2023-08-31T01:05:59;99302.94;;;15.87;100.00
19748;BME280;10032;51.386;12.516;2023-08-31T01:08:47;99298.72;;;15.81;100.00
19748;BME280;10032;51.386;12.516;2023-08-31T01:14:16;99306.00;;;15.72;100.00
19748;BME280;10032;51.386;12.516;2023-08-31T01:16:44;99307.59;;;15.73;100.00
19748;BME280;10032;51.386;12.516;2023-08-31T01:19:23;99314.28;;;15.67;100.00
19748;BME280;10032;51.386;12.516;2023-08-31T01:21:54;99321.97;;;15.65;100.00
19748;BME280;10032;51.386;12.516;2023-08-31T01:24:23;99321.25;;;15.60;100.00
19748;BME280;10032;51.386;12.516;2023-08-31T01:26:48;99321.34;;;15.55;100.00
19748;BME280;10032;51.386;12.516;2023-08-31T01:29:14;99311.94;;;15.47;100.00
19748;BME280;10032;51.386;12.516;2023-08-31T01:31:43;99308.19;;;15.43;100.00
19748;BME280;10032;51.386;12.516;2023-08-31T01:34:09;99311.53;;;15.40;100.00
19748;BME280;10032;51.386;12.516;2023-08-31T01:36:37;99307.97;;;15.40;100.00
19748;BME280;10032;51.386;12.516;2023-08-31T01:39:12;99313.63;;;15.43;100.00
19748;BME280;10032;51.386;12.516;2023-08-31T01:41:40;99315.28;;;15.44;100.00
19748;BME280;10032;51.386;12.516;2023-08-31T01:44:09;99313.44;;;15.40;100.00
19748;BME280;10032;51.386;12.516;2023-08-31T01:46:39;99313.63;;;15.43;100.00
19748;BME280;10032;51.386;12.516;2023-08-31T01:49:05;99304.94;;;15.41;100.00
19748;BME280;10032;51.386;12.516;2023-08-31T01:51:31;99312.84;;;15.43;100.00
19748;BME280;10032;51.386;12.516;2023-08-31T01:53:56;99301.72;;;15.39;100.00
19748;BME280;10032;51.386;12.516;2023-08-31T01:56:23;99307.19;;;15.39;100.00
19748;BME280;10032;51.386;12.516;2023-08-31T01:58:49;99312.13;;;15.37;100.00
19748;BME280;10032;51.386;12.516;2023-08-31T02:01:14;99324.16;;;15.36;100.00
19748;BME280;10032;51.386;12.516;2023-08-31T02:03:39;99319.31;;;15.33;100.00
19748;BME280;10032;51.386;12.516;2023-08-31T02:06:05;99322.31;;;15.32;100.00
19748;BME280;10032;51.386;12.516;2023-08-31T02:08:30;99308.94;;;15.30;100.00
19748;BME280;10032;51.386;12.516;2023-08-31T02:10:55;99312.81;;;15.29;100.00
19748;BME280;10032;51.386;12.516;2023-08-31T02:13:21;99316.72;;;15.23;100.00
19748;BME280;10032;51.386;12.516;2023-08-31T02:15:46;99324.09;;;15.23;100.00
19748;BME280;10032;51.386;12.516;2023-08-31T02:18:11;99316.00;;;15.18;100.00
19748;BME280;10032;51.386;12.516;2023-08-31T02:20:37;99328.53;;;15.19;100.00
19748;BME280;10032;51.386;12.516;2023-08-31T02:23:02;99327.22;;;15.16;100.00
19748;BME280;10032;51.386;12.516;2023-08-31T02:25:28;99327.81;;;15.13;100.00
19748;BME280;10032;51.386;12.516;2023-08-31T02:27:54;99326.50;;;15.11;100.00
19748;BME280;10032;51.386;12.516;2023-08-31T02:30:19;99325.69;;;15.10;100.00
19748;BME280;10032;51.386;12.516;2023-08-31T02:32:45;99322.44;;;15.08;100.00
19748;BME280;10032;51.386;12.516;2023-08-31T02:35:10;99320.91;;;15.02;100.00
19748;BME280;10032;51.386;12.516;2023-08-31T02:37:37;99324.53;;;14.98;100.00
19748;BME280;10032;51.386;12.516;2023-08-31T02:40:03;99334.94;;;14.96;100.00
19748;BME280;10032;51.386;12.516;2023-08-31T02:42:28;99332.72;;;14.98;100.00
19748;BME280;10032;51.386;12.516;2023-08-31T02:44:54;99333.03;;;14.96;100.00
19748;BME280;10032;51.386;12.516;2023-08-31T02:47:19;99341.28;;;14.91;100.00
19748;BME280;10032;51.386;12.516;2023-08-31T02:49:45;99336.34;;;14.93;100.00
19748;BME280;10032;51.386;12.516;2023-08-31T02:52:10;99345.34;;;14.94;100.00
19748;BME280;10032;51.386;12.516;2023-08-31T02:54:36;99339.16;;;14.88;100.00
19748;BME280;10032;51.386;12.516;2023-08-31T02:57:01;99345.72;;;14.87;100.00
19748;BME280;10032;51.386;12.516;2023-08-31T02:59:27;99346.22;;;14.89;100.00
19748;BME280;10032;51.386;12.516;2023-08-31T03:01:53;99345.63;;;14.92;100.00
19748;BME280;10032;51.386;12.516;2023-08-31T03:04:18;99341.28;;;14.91;100.00
19748;BME280;10032;51.386;12.516;2023-08-31T03:06:43;99348.06;;;14.94;100.00
19748;BME280;10032;51.386;12.516;2023-08-31T03:09:09;99350.56;;;14.90;100.00
19748;BME280;10032;51.386;12.516;2023-08-31T03:11:35;99348.44;;;14.87;100.00
19748;BME280;10032;51.386;12.516;2023-08-31T03:14:00;99355.50;;;14.88;100.00
19748;BME280;10032;51.386;12.516;2023-08-31T03:16:25;99354.41;;;14.89;100.00
19748;BME280;10032;51.386;12.516;2023-08-31T03:18:51;99351.69;;;14.89;100.00
19748;BME280;10032;51.386;12.516;2023-08-31T03:21:16;99348.38;;;14.92;100.00
19748;BME280;10032;51.386;12.516;2023-08-31T03:23:42;99351.09;;;14.92;100.00
19748;BME280;10032;51.386;12.516;2023-08-31T03:26:08;99356.75;;;14.96;100.00
19748;BME280;10032;51.386;12.516;2023-08-31T03:28:33;99358.59;;;15.00;100.00
19748;BME280;10032;51.386;12.516;2023-08-31T03:30:59;99349.28;;;15.01;100.00
19748;BME280;10032;51.386;12.516;2023-08-31T03:33:24;99354.97;;;15.05;100.00
19748;BME280;10032;51.386;12.516;2023-08-31T03:35:50;99355.19;;;15.08;100.00
19748;BME280;10032;51.386;12.516;2023-08-31T03:38:15;99373.19;;;15.09;100.00
19748;BME280;10032;51.386;12.516;2023-08-31T03:40:41;99366.69;;;15.05;100.00
19748;BME280;10032;51.386;12.516;2023-08-31T03:43:06;99375.63;;;15.11;100.00
19748;BME280;10032;51.386;12.516;2023-08-31T03:45:31;99369.88;;;15.12;100.00
19748;BME280;10032;51.386;12.516;2023-08-31T03:47:57;99372.88;;;15.11;100.00
19748;BME280;10032;51.386;12.516;2023-08-31T03:50:22;99372.06;;;15.10;100.00
19748;BME280;10032;51.386;12.516;2023-08-31T03:52:48;99374.22;;;15.13;100.00
19748;BME280;10032;51.386;12.516;2023-08-31T03:55:13;99371.47;;;15.13;100.00
19748;BME280;10032;51.386;12.516;2023-08-31T03:57:39;99371.19;;;15.15;100.00
19748;BME280;10032;51.386;12.516;2023-08-31T04:00:04;99369.53;;;15.14;100.00
19748;BME280;10032;51.386;12.516;2023-08-31T04:02:37;99374.41;;;15.17;100.00
19748;BME280;10032;51.386;12.516;2023-08-31T04:05:03;99378.84;;;15.13;100.00
19748;BME280;10032;51.386;12.516;2023-08-31T04:07:31;99380.16;;;15.15;100.00
19748;BME280;10032;51.386;12.516;2023-08-31T04:09:57;99381.50;;;15.18;100.00
19748;BME280;10032;51.386;12.516;2023-08-31T04:12:22;99372.47;;;15.17;100.00
19748;BME280;10032;51.386;12.516;2023-08-31T04:14:47;99387.97;;;15.22;100.00
19748;BME280;10032;51.386;12.516;2023-08-31T04:17:13;99389.88;;;15.21;100.00
19748;BME280;10032;51.386;12.516;2023-08-31T04:19:38;99395.44;;;15.16;100.00
19748;BME280;10032;51.386;12.516;2023-08-31T04:22:04;99401.72;;;15.17;100.00
19748;BME280;10032;51.386;12.516;2023-08-31T04:24:30;99399.88;;;15.12;100.00
19748;BME280;10032;51.386;12.516;2023-08-31T04:26:55;99398.47;;;15.15;100.00
19748;BME280;10032;51.386;12.516;2023-08-31T04:29:21;99398.69;;;15.18;100.00
19748;BME280;10032;51.386;12.516;2023-08-31T04:31:46;99398.69;;;15.18;100.00
19748;BME280;10032;51.386;12.516;2023-08-31T04:34:12;99405.56;;;15.16;100.00
19748;BME280;10032;51.386;12.516;2023-08-31T04:36:37;99401.41;;;15.18;100.00
19748;BME280;10032;51.386;12.516;2023-08-31T04:39:03;99404.06;;;15.23;100.00
19748;BME280;10032;51.386;12.516;2023-08-31T04:41:30;99410.03;;;15.25;100.00
19748;BME280;10032;51.386;12.516;2023-08-31T04:43:55;99410.59;;;15.22;100.00
19748;BME280;10032;51.386;12.516;2023-08-31T04:46:20;99422.34;;;15.23;100.00
19748;BME280;10032;51.386;12.516;2023-08-31T04:48:46;99416.81;;;15.28;100.00
19748;BME280;10032;51.386;12.516;2023-08-31T04:53:55;99435.16;;;15.22;100.00
19748;BME280;10032;51.386;12.516;2023-08-31T04:56:20;99424.78;;;15.24;100.00
19748;BME280;10032;51.386;12.516;2023-08-31T04:58:46;99430.03;;;15.21;100.00
19748;BME280;10032;51.386;12.516;2023-08-31T05:01:11;99432.44;;;15.22;100.00
19748;BME280;10032;51.386;12.516;2023-08-31T05:03:36;99435.69;;;15.24;100.00
19748;BME280;10032;51.386;12.516;2023-08-31T05:06:02;99449.84;;;15.26;100.00
19748;BME280;10032;51.386;12.516;2023-08-31T05:08:30;99456.72;;;15.24;100.00
19748;BME280;10032;51.386;12.516;2023-08-31T05:10:55;99456.63;;;15.29;100.00
19748;BME280;10032;51.386;12.516;2023-08-31T05:13:20;99447.66;;;15.28;100.00
19748;BME280;10032;51.386;12.516;2023-08-31T05:15:46;99452.50;;;15.31;100.00
19748;BME280;10032;51.386;12.516;2023-08-31T05:18:11;99456.31;;;15.35;100.00
19748;BME280;10032;51.386;12.516;2023-08-31T05:20:36;99464.19;;;15.37;100.00
19748;BME280;10032;51.386;12.516;2023-08-31T05:23:02;99455.69;;;15.38;100.00
19748;BME280;10032;51.386;12.516;2023-08-31T05:25:30;99459.25;;;15.39;100.00
19748;BME280;10032;51.386;12.516;2023-08-31T05:27:56;99462.47;;;15.41;100.00
19748;BME280;10032;51.386;12.516;2023-08-31T05:30:21;99474.00;;;15.38;100.00
19748;BME280;10032;51.386;12.516;2023-08-31T05:32:47;99468.47;;;15.43;100.00
19748;BME280;10032;51.386;12.516;2023-08-31T05:35:12;99461.06;;;15.43;100.00
19748;BME280;10032;51.386;12.516;2023-08-31T05:37:37;99465.34;;;15.49;100.00
19748;BME280;10032;51.386;12.516;2023-08-31T05:40:04;99473.47;;;15.54;100.00
19748;BME280;10032;51.386;12.516;2023-08-31T05:42:35;99470.22;;;15.52;100.00
19748;BME280;10032;51.386;12.516;2023-08-31T05:45:01;99475.88;;;15.56;100.00
19748;BME280;10032;51.386;12.516;2023-08-31T05:47:26;99480.22;;;15.57;100.00
19748;BME280;10032;51.386;12.516;2023-08-31T05:49:51;99482.00;;;15.66;100.00
19748;BME280;10032;51.386;12.516;2023-08-31T05:52:17;99485.63;;;15.75;100.00
19748;BME280;10032;51.386;12.516;2023-08-31T05:54:42;99490.31;;;15.75;100.00
19748;BME280;10032;51.386;12.516;2023-08-31T05:57:08;99483.22;;;15.74;100.00
19748;BME280;10032;51.386;12.516;2023-08-31T05:59:33;99487.13;;;15.86;100.00
19748;BME280;10032;51.386;12.516;2023-08-31T06:01:58;99487.84;;;16.05;100.00
19748;BME280;10032;51.386;12.516;2023-08-31T06:04:24;99485.59;;;16.39;100.00
19748;BME280;10032;51.386;12.516;2023-08-31T06:06:49;99493.69;;;16.71;100.00
19748;BME280;10032;51.386;12.516;2023-08-31T06:09:19;99489.50;;;16.87;100.00
19748;BME280;10032;51.386;12.516;2023-08-31T06:11:45;99493.41;;;17.08;100.00
19748;BME280;10032;51.386;12.516;2023-08-31T06:14:11;99492.88;;;17.20;100.00
19748;BME280;10032;51.386;12.516;2023-08-31T06:16:36;99495.59;;;17.20;100.00
19748;BME280;10032;51.386;12.516;2023-08-31T06:19:01;99489.94;;;17.16;100.00
19748;BME280;10032;51.386;12.516;2023-08-31T06:21:30;99505.56;;;17.16;100.00
19748;BME280;10032;51.386;12.516;2023-08-31T06:23:55;99495.19;;;17.26;100.00
19748;BME280;10032;51.386;12.516;2023-08-31T06:26:21;99501.38;;;17.32;100.00
19748;BME280;10032;51.386;12.516;2023-08-31T06:28:48;99494.19;;;17.22;100.00
19748;BME280;10032;51.386;12.516;2023-08-31T06:31:14;99514.56;;;17.16;100.00
19748;BME280;10032;51.386;12.516;2023-08-31T06:33:40;99506.78;;;17.10;100.00
19748;BME280;10032;51.386;12.516;2023-08-31T06:36:05;99512.97;;;17.15;100.00
19748;BME280;10032;51.386;12.516;2023-08-31T06:38:31;99514.56;;;17.16;100.00
19748;BME280;10032;51.386;12.516;2023-08-31T06:40:56;99519.44;;;17.19;100.00
19748;BME280;10032;51.386;12.516;2023-08-31T06:43:24;99528.91;;;17.13;100.00
19748;BME280;10032;51.386;12.516;2023-08-31T06:45:52;99526.28;;;17.08;100.00
19748;BME280;10032;51.386;12.516;2023-08-31T06:48:18;99524.06;;;17.32;100.00
19748;BME280;10032;51.386;12.516;2023-08-31T06:50:43;99529.22;;;17.47;100.00
19748;BME280;10032;51.386;12.516;2023-08-31T06:53:08;99527.50;;;17.51;100.00
19748;BME280;10032;51.386;12.516;2023-08-31T06:55:34;99538.34;;;17.56;100.00
19748;BME280;10032;51.386;12.516;2023-08-31T06:58:02;99539.53;;;17.64;100.00
19748;BME280;10032;51.386;12.516;2023-08-31T07:00:29;99539.06;;;17.70;100.00
19748;BME280;10032;51.386;12.516;2023-08-31T07:02:55;99536.44;;;17.79;100.00
19748;BME280;10032;51.386;12.516;2023-08-31T07:05:25;99540.13;;;18.05;100.00
19748;BME280;10032;51.386;12.516;2023-08-31T07:07:54;99540.63;;;18.07;100.00
19748;BME280;10032;51.386;12.516;2023-08-31T07:10:20;99533.75;;;18.18;100.00
19748;BME280;10032;51.386;12.516;2023-08-31T07:12:46;99526.41;;;18.27;100.00
19748;BME280;10032;51.386;12.516;2023-08-31T07:15:12;99539.25;;;18.18;100.00
19748;BME280;10032;51.386;12.516;2023-08-31T07:17:37;99536.41;;;18.31;100.00
19748;BME280;10032;51.386;12.516;2023-08-31T07:20:03;99532.44;;;18.37;100.00
19748;BME280;10032;51.386;12.516;2023-08-31T07:22:32;99543.41;;;18.37;100.00
19748;BME280;10032;51.386;12.516;2023-08-31T07:24:58;99549.91;;;18.41;100.00
19748;BME280;10032;51.386;12.516;2023-08-31T07:27:23;99548.91;;;18.37;100.00
19748;BME280;10032;51.386;12.516;2023-08-31T07:29:48;99559.88;;;18.37;100.00
19748;BME280;10032;51.386;12.516;2023-08-31T07:32:14;99554.38;;;18.37;100.00
19748;BME280;10032;51.386;12.516;2023-08-31T07:34:39;99562.47;;;18.42;100.00
19748;BME280;10032;51.386;12.516;2023-08-31T07:37:05;99568.97;;;18.46;100.00
19748;BME280;10032;51.386;12.516;2023-08-31T07:39:31;99564.50;;;18.59;100.00
19748;BME280;10032;51.386;12.516;2023-08-31T07:41:57;99573.28;;;18.78;100.00
19748;BME280;10032;51.386;12.516;2023-08-31T07:44:23;99584.84;;;18.97;100.00
19748;BME280;10032;51.386;12.516;2023-08-31T07:46:48;99577.47;;;19.14;100.00
19748;BME280;10032;51.386;12.516;2023-08-31T07:49:14;99581.94;;;18.93;100.00
19748;BME280;10032;51.386;12.516;2023-08-31T07:51:39;99585.84;;;18.70;100.00
19748;BME280;10032;51.386;12.516;2023-08-31T07:54:05;99591.81;;;18.64;100.00
19748;BME280;10032;51.386;12.516;2023-08-31T07:56:30;99593.22;;;18.53;100.00
19748;BME280;10032;51.386;12.516;2023-08-31T07:58:55;99601.25;;;18.49;100.00
19748;BME280;10032;51.386;12.516;2023-08-31T08:01:21;99608.13;;;18.38;100.00
19748;BME280;10032;51.386;12.516;2023-08-31T08:03:46;99608.88;;;18.30;100.00
19748;BME280;10032;51.386;12.516;2023-08-31T08:06:12;99609.47;;;18.27;100.00
19748;BME280;10032;51.386;12.516;2023-08-31T08:08:37;99613.97;;;18.23;100.00
19748;BME280;10032;51.386;12.516;2023-08-31T08:11:04;99607.88;;;18.26;100.00
19748;BME280;10032;51.386;12.516;2023-08-31T08:13:29;99615.34;;;18.56;100.00
19748;BME280;10032;51.386;12.516;2023-08-31T08:15:55;99611.63;;;18.91;100.00
19748;BME280;10032;51.386;12.516;2023-08-31T08:18:20;99610.28;;;19.19;100.00
19748;BME280;10032;51.386;12.516;2023-08-31T08:20:50;99608.44;;;19.45;100.00
19748;BME280;10032;51.386;12.516;2023-08-31T08:23:16;99610.50;;;19.40;100.00
19748;BME280;10032;51.386;12.516;2023-08-31T08:25:41;99608.28;;;19.50;100.00
19748;BME280;10032;51.386;12.516;2023-08-31T08:28:06;99605.19;;;19.43;100.00
19748;BME280;10032;51.386;12.516;2023-08-31T08:30:32;99614.06;;;19.32;100.00
19748;BME280;10032;51.386;12.516;2023-08-31T08:32:57;99619.13;;;19.16;100.00
19748;BME280;10032;51.386;12.516;2023-08-31T08:35:24;99619.44;;;19.06;100.00
19748;BME280;10032;51.386;12.516;2023-08-31T08:37:49;99619.72;;;18.96;100.00
19748;BME280;10032;51.386;12.516;2023-08-31T08:40:15;99617.63;;;18.93;100.00
19748;BME280;10032;51.386;12.516;2023-08-31T08:42:42;99617.31;;;18.95;100.00
19748;BME280;10032;51.386;12.516;2023-08-31T08:45:18;99618.44;;;19.02;100.00
19748;BME280;10032;51.386;12.516;2023-08-31T08:47:46;99618.28;;;18.99;100.00
19748;BME280;10032;51.386;12.516;2023-08-31T08:50:12;99614.59;;;19.03;100.00
19748;BME280;10032;51.386;12.516;2023-08-31T08:52:39;99623.63;;;19.04;100.00
19748;BME280;10032;51.386;12.516;2023-08-31T08:55:05;99623.63;;;19.04;100.00
19748;BME280;10032;51.386;12.516;2023-08-31T08:57:31;99634.78;;;19.07;100.00
19748;BME280;10032;51.386;12.516;2023-08-31T08:59:59;99631.34;;;18.93;100.00
19748;BME280;10032;51.386;12.516;2023-08-31T09:02:25;99630.50;;;18.84;100.00
19748;BME280;10032;51.386;12.516;2023-08-31T09:04:50;99629.66;;;18.84;100.00
19748;BME280;10032;51.386;12.516;2023-08-31T09:07:22;99641.00;;;18.82;100.00
19748;BME280;10032;51.386;12.516;2023-08-31T09:09:53;99625.13;;;18.79;100.00
19748;BME280;10032;51.386;12.516;2023-08-31T09:12:21;99645.38;;;18.92;100.00
19748;BME280;10032;51.386;12.516;2023-08-31T09:15:00;99640.84;;;18.87;100.00
19748;BME280;10032;51.386;12.516;2023-08-31T09:17:28;99642.16;;;18.90;100.00
19748;BME280;10032;51.386;12.516;2023-08-31T09:20:02;99650.19;;;18.86;100.00
19748;BME280;10032;51.386;12.516;2023-08-31T09:22:29;99635.38;;;18.87;100.00
19748;BME280;10032;51.386;12.516;2023-08-31T09:24:54;99647.13;;;18.88;100.00
19748;BME280;10032;51.386;12.516;2023-08-31T09:27:20;99654.72;;;18.82;100.00
19748;BME280;10032;51.386;12.516;2023-08-31T09:29:47;99647.75;;;18.76;100.00
19748;BME280;10032;51.386;12.516;2023-08-31T09:32:19;99662.00;;;18.87;100.00
19748;BME280;10032;51.386;12.516;2023-08-31T09:34:45;99656.38;;;18.92;100.00
19748;BME280;10032;51.386;12.516;2023-08-31T09:37:10;99659.63;;;19.02;100.00
19748;BME280;10032;51.386;12.516;2023-08-31T09:39:37;99670.91;;;18.92;100.00
19748;BME280;10032;51.386;12.516;2023-08-31T09:42:04;99677.78;;;18.81;100.00
19748;BME280;10032;51.386;12.516;2023-08-31T09:44:29;99671.16;;;18.52;100.00
19748;BME280;10032;51.386;12.516;2023-08-31T09:46:55;99665.72;;;18.38;100.00
19748;BME280;10032;51.386;12.516;2023-08-31T09:49:21;99653.50;;;18.44;100.00
19748;BME280;10032;51.386;12.516;2023-08-31T09:51:49;99655.88;;;18.59;100.00
19748;BME280;10032;51.386;12.516;2023-08-31T09:54:19;99662.16;;;18.90;100.00
19748;BME280;10032;51.386;12.516;2023-08-31T09:56:47;99651.47;;;19.11;100.00
19748;BME280;10032;51.386;12.516;2023-08-31T09:59:14;99656.53;;;19.26;100.00
19748;BME280;10032;51.386;12.516;2023-08-31T10:01:41;99654.16;;;19.41;100.00
19748;BME280;10032;51.386;12.516;2023-08-31T10:04:07;99643.50;;;19.57;100.00
19748;BME280;10032;51.386;12.516;2023-08-31T10:06:35;99660.53;;;19.67;100.00
19748;BME280;10032;51.386;12.516;2023-08-31T10:09:02;99646.94;;;19.79;100.00
19748;BME280;10032;51.386;12.516;2023-08-31T10:11:28;99646.16;;;20.04;100.00
19748;BME280;10032;51.386;12.516;2023-08-31T10:13:54;99638.56;;;20.27;100.00
19748;BME280;10032;51.386;12.516;2023-08-31T10:16:21;99639.50;;;20.39;100.00
19748;BME280;10032;51.386;12.516;2023-08-31T10:18:46;99634.16;;;20.51;100.00
19748;BME280;10032;51.386;12.516;2023-08-31T10:21:16;99636.91;;;20.51;100.00
19748;BME280;10032;51.386;12.516;2023-08-31T10:23:45;99648.88;;;20.55;100.00
19748;BME280;10032;51.386;12.516;2023-08-31T10:26:11;99649.75;;;20.30;100.00
19748;BME280;10032;51.386;12.516;2023-08-31T10:28:42;99646.91;;;20.64;100.00
19748;BME280;10032;51.386;12.516;2023-08-31T10:31:10;99657.28;;;20.67;100.00
19748;BME280;10032;51.386;12.516;2023-08-31T10:33:42;99654.50;;;20.76;100.00
19748;BME280;10032;51.386;12.516;2023-08-31T10:36:16;99648.00;;;20.89;100.00
19748;BME280;10032;51.386;12.516;2023-08-31T10:38:45;99647.72;;;21.19;100.00
19748;BME280;10032;51.386;12.516;2023-08-31T10:51:44;99625.25;;;21.38;100.00
19748;BME280;10032;51.386;12.516;2023-08-31T10:54:20;99616.34;;;21.32;100.00
19748;BME280;10032;51.386;12.516;2023-08-31T10:57:15;99611.50;;;21.00;100.00
19748;BME280;10032;51.386;12.516;2023-08-31T10:59:51;99612.25;;;20.63;100.00
19748;BME280;10032;51.386;12.516;2023-08-31T11:07:49;99616.66;;;20.56;100.00
19748;BME280;10032;51.386;12.516;2023-08-31T11:12:44;99621.34;;;20.47;100.00
19748;BME280;10032;51.386;12.516;2023-08-31T11:15:20;99615.28;;;20.24;100.00
19748;BME280;10032;51.386;12.516;2023-08-31T11:17:49;99616.25;;;20.11;100.00
19748;BME280;10032;51.386;12.516;2023-08-31T11:20:16;99630.13;;;20.06;100.00
19748;BME280;10032;51.386;12.516;2023-08-31T11:22:44;99618.31;;;19.97;100.00
19748;BME280;10032;51.386;12.516;2023-08-31T11:25:11;99609.13;;;20.10;100.00
19748;BME280;10032;51.386;12.516;2023-08-31T11:27:37;99616.06;;;20.25;100.00
19748;BME280;10032;51.386;12.516;2023-08-31T11:30:10;99616.91;;;20.71;100.00
19748;BME280;10032;51.386;12.516;2023-08-31T11:32:36;99613.03;;;20.81;99.07
19748;BME280;10032;51.386;12.516;2023-08-31T11:35:01;99618.38;;;20.77;97.43
19748;BME280;10032;51.386;12.516;2023-08-31T11:37:29;99621.28;;;20.89;96.09
19748;BME280;10032;51.386;12.516;2023-08-31T11:39:54;99614.94;;;20.80;94.84
19748;BME280;10032;51.386;12.516;2023-08-31T11:42:21;99609.78;;;20.70;94.41
19748;BME280;10032;51.386;12.516;2023-08-31T11:44:48;99619.47;;;20.93;93.91
19748;BME280;10032;51.386;12.516;2023-08-31T11:47:18;99605.84;;;20.97;91.52
19748;BME280;10032;51.386;12.516;2023-08-31T11:49:45;99610.25;;;20.89;90.78
19748;BME280;10032;51.386;12.516;2023-08-31T11:52:12;99600.44;;;21.09;90.69
19748;BME280;10032;51.386;12.516;2023-08-31T11:54:39;99610.03;;;21.32;91.22
19748;BME280;10032;51.386;12.516;2023-08-31T11:57:08;99611.97;;;21.60;89.30
19748;BME280;10032;51.386;12.516;2023-08-31T11:59:37;99603.63;;;21.77;87.77
19748;BME280;10032;51.386;12.516;2023-08-31T12:02:07;99605.31;;;22.02;87.66
19748;BME280;10032;51.386;12.516;2023-08-31T12:04:33;99603.88;;;22.37;86.95
19748;BME280;10032;51.386;12.516;2023-08-31T12:07:07;99603.38;;;22.56;85.01
19748;BME280;10032;51.386;12.516;2023-08-31T12:09:33;99600.66;;;22.80;86.66
19748;BME280;10032;51.386;12.516;2023-08-31T12:11:58;99601.94;;;23.06;85.98
19748;BME280;10032;51.386;12.516;2023-08-31T12:14:27;99595.16;;;23.04;81.85
19748;BME280;10032;51.386;12.516;2023-08-31T12:17:00;99589.50;;;23.12;80.69
19748;BME280;10032;51.386;12.516;2023-08-31T12:19:27;99597.81;;;23.24;78.92
19748;BME280;10032;51.386;12.516;2023-08-31T12:21:54;99603.38;;;23.36;77.43
19748;BME280;10032;51.386;12.516;2023-08-31T12:24:19;99603.00;;;23.14;73.92
19748;BME280;10032;51.386;12.516;2023-08-31T12:26:47;99603.78;;;22.90;75.46
19748;BME280;10032;51.386;12.516;2023-08-31T12:29:12;99603.41;;;22.68;71.48
19748;BME280;10032;51.386;12.516;2023-08-31T12:31:38;99603.38;;;22.56;73.83
19748;BME280;10032;51.386;12.516;2023-08-31T12:34:04;99605.94;;;22.40;72.01
19748;BME280;10032;51.386;12.516;2023-08-31T12:36:31;99611.91;;;22.63;72.39
19748;BME280;10032;51.386;12.516;2023-08-31T12:38:57;99605.44;;;22.59;71.26
19748;BME280;10032;51.386;12.516;2023-08-31T12:41:26;99612.22;;;22.61;71.11
19748;BME280;10032;51.386;12.516;2023-08-31T12:43:51;99603.50;;;22.59;70.83
19748;BME280;10032;51.386;12.516;2023-08-31T12:46:17;99614.38;;;23.00;73.17
19748;BME280;10032;51.386;12.516;2023-08-31T12:48:42;99613.28;;;23.25;71.53
19748;BME280;10032;51.386;12.516;2023-08-31T12:51:08;99617.03;;;23.57;72.33
19748;BME280;10032;51.386;12.516;2023-08-31T12:53:37;99608.81;;;23.72;71.21
19748;BME280;10032;51.386;12.516;2023-08-31T12:56:03;99617.06;;;23.45;69.14
19748;BME280;10032;51.386;12.516;2023-08-31T12:58:29;99618.81;;;23.37;68.36
19748;BME280;10032;51.386;12.516;2023-08-31T13:00:58;99615.31;;;23.40;69.04
19748;BME280;10032;51.386;12.516;2023-08-31T13:03:23;99625.91;;;23.50;67.86